createdAt,value
2022-08-22T00:01:57.303Z,78.84
2022-08-22T00:02:59.074Z,80.47
2022-08-22T00:03:03.229Z,33.53
2022-08-22T00:03:09.032Z,44.85
2022-08-22T00:03:11.472Z,42.92
2022-08-22T00:03:12.734Z,81.67
2022-08-22T00:04:35.192Z,81.41
2022-08-22T00:07:08.782Z,82.04
2022-08-22T00:09:45.283Z,82.33
2022-08-22T00:12:32.629Z,83.14
2022-08-22T00:15:31.701Z,84.23
2022-08-22T00:18:50.107Z,86.13
2022-08-22T00:21:23.333Z,81.12
2022-08-22T00:24:13.910Z,83.84
2022-08-22T00:26:49.314Z,87.20
2022-08-22T00:29:24.542Z,85.52
2022-08-22T00:32:02.044Z,82.85
2022-08-22T00:34:49.120Z,86.12
2022-08-22T00:37:21.217Z,85.33
2022-08-22T00:40:03.263Z,90.60
2022-08-22T00:43:01.049Z,90.87
2022-08-22T00:46:04.220Z,89.59
2022-08-22T00:49:14.945Z,88.82
2022-08-22T00:52:00.817Z,89.37
2022-08-22T00:54:35.315Z,92.52
2022-08-22T00:57:18.653Z,86.92
2022-08-22T01:00:13.678Z,87.67
2022-08-22T01:03:08.574Z,90.24
2022-08-22T01:05:51.544Z,92.69
2022-08-22T01:08:28.662Z,91.53
2022-08-22T01:11:11.209Z,92.44
2022-08-22T01:14:06.545Z,90.97
2022-08-22T01:17:00.690Z,87.49
2022-08-22T01:19:55.764Z,88.32
2022-08-22T01:22:41.861Z,90.51
2022-08-22T01:25:36.630Z,91.02
2022-08-22T01:28:12.922Z,93.65
2022-08-22T01:31:37.916Z,92.29
2022-08-22T01:34:19.876Z,91.67
2022-08-22T01:37:17.943Z,88.28
2022-08-22T01:40:22.230Z,88.51
2022-08-22T01:43:06.957Z,92.80
2022-08-22T01:45:57.107Z,93.94
2022-08-22T01:48:47.704Z,94.68
2022-08-22T01:51:27.122Z,96.55
2022-08-22T01:54:10.824Z,94.91
2022-08-22T01:56:45.950Z,91.49
2022-08-22T01:59:50.824Z,91.97
2022-08-22T02:02:42.321Z,93.61
2022-08-22T02:05:32.044Z,96.71
2022-08-22T02:08:22.285Z,95.30
2022-08-22T02:11:09.396Z,97.31
2022-08-22T02:14:07.245Z,95.21
2022-08-22T02:16:45.075Z,93.93
2022-08-22T02:19:15.277Z,95.27
2022-08-22T02:21:50.606Z,97.05
2022-08-22T02:24:59.381Z,96.73
2022-08-22T02:27:52.418Z,98.75
2022-08-22T02:30:25.850Z,100.00
2022-08-22T02:33:13.266Z,97.35
2022-08-22T02:35:55.381Z,96.54
2022-08-22T02:38:42.997Z,93.43
2022-08-22T02:41:22.203Z,95.93
2022-08-22T02:43:54.350Z,97.18
2022-08-22T02:46:40.826Z,98.34
2022-08-22T02:49:17.225Z,96.52
2022-08-22T02:51:54.603Z,96.72
2022-08-22T02:54:52.621Z,94.61
2022-08-22T02:57:39.444Z,91.90
2022-08-22T03:00:30.892Z,93.06
2022-08-22T03:03:03.408Z,93.98
2022-08-22T03:05:36.583Z,95.63
2022-08-22T03:08:14.263Z,95.97
2022-08-22T03:10:47.181Z,96.06
2022-08-22T03:13:24.972Z,95.79
2022-08-22T03:16:04.786Z,97.35
2022-08-22T03:19:27.789Z,93.11
2022-08-22T03:22:02.530Z,94.10
2022-08-22T03:24:48.733Z,96.00
2022-08-22T03:27:32.931Z,99.60
2022-08-22T03:30:23.244Z,98.41
2022-08-22T03:32:50.801Z,99.83
2022-08-22T03:35:35.135Z,100.00
2022-08-22T03:38:28.784Z,100.00
2022-08-22T03:41:20.584Z,99.54
2022-08-22T03:44:18.500Z,94.94
2022-08-22T03:47:14.561Z,96.86
2022-08-22T03:49:41.925Z,97.72
2022-08-22T03:53:05.724Z,100.00
2022-08-22T03:55:47.050Z,99.85
2022-08-22T03:58:31.418Z,100.00
2022-08-22T04:01:17.221Z,100.00
2022-08-22T04:04:09.753Z,100.00
2022-08-22T04:07:00.746Z,95.57
2022-08-22T04:10:05.482Z,99.40
2022-08-22T04:13:05.980Z,100.00
2022-08-22T04:16:04.293Z,100.00
2022-08-22T04:18:52.710Z,100.00
2022-08-22T04:21:48.337Z,100.00
2022-08-22T04:24:43.324Z,100.00
2022-08-22T04:27:33.123Z,100.00
2022-08-22T04:30:31.772Z,100.00
2022-08-22T04:33:14.756Z,100.00
2022-08-22T04:35:54.200Z,100.00
2022-08-22T04:38:31.465Z,100.00
2022-08-22T04:41:07.657Z,100.00
2022-08-22T04:43:45.354Z,100.00
2022-08-22T04:46:41.340Z,100.00
2022-08-22T04:49:21.096Z,96.36
2022-08-22T04:52:09.685Z,100.00
2022-08-22T04:55:05.869Z,100.00
2022-08-22T04:57:46.709Z,100.00
2022-08-22T05:00:16.304Z,100.00
2022-08-22T05:02:50.620Z,100.00
2022-08-22T05:05:23.793Z,100.00
2022-08-22T05:08:03.434Z,100.00
2022-08-22T05:10:42.804Z,98.72
2022-08-22T05:13:22.273Z,100.00
2022-08-22T05:15:54.568Z,100.00
2022-08-22T05:18:32.127Z,100.00
2022-08-22T05:21:04.513Z,100.00
2022-08-22T05:23:52.439Z,100.00
2022-08-22T05:26:21.207Z,100.00
2022-08-22T05:28:53.661Z,100.00
2022-08-22T05:31:35.264Z,99.46
2022-08-22T05:34:11.554Z,100.00
2022-08-22T05:36:45.912Z,100.00
2022-08-22T05:39:18.125Z,100.00
2022-08-22T05:41:46.975Z,100.00
2022-08-22T05:44:23.410Z,100.00
2022-08-22T05:47:00.892Z,96.14
2022-08-22T05:49:46.239Z,97.54
2022-08-22T05:52:35.294Z,99.83
2022-08-22T05:55:26.145Z,99.12
2022-08-22T05:58:25.926Z,98.49
2022-08-22T06:01:08.399Z,99.93
2022-08-22T06:03:40.626Z,97.70
2022-08-22T06:06:18.311Z,89.85
2022-08-22T06:09:12.806Z,90.89
2022-08-22T06:12:21.863Z,81.58
2022-08-22T06:14:52.854Z,85.41
2022-08-22T06:17:32.939Z,86.13
2022-08-22T06:20:01.064Z,87.52
2022-08-22T06:22:35.512Z,86.50
2022-08-22T06:25:18.897Z,86.68
2022-08-22T06:27:49.553Z,86.68
2022-08-22T06:30:19.564Z,86.14
2022-08-22T06:33:00.162Z,85.89
2022-08-22T06:35:55.394Z,86.55
2022-08-22T06:38:29.746Z,84.66
2022-08-22T06:41:00.807Z,73.48
2022-08-22T06:43:37.191Z,73.21
2022-08-22T06:46:06.683Z,76.59
2022-08-22T06:48:36.474Z,78.01
2022-08-22T06:51:07.426Z,68.38
2022-08-22T06:53:45.886Z,69.59
2022-08-22T06:56:25.696Z,72.59
2022-08-22T06:58:58.960Z,71.37
2022-08-22T07:01:38.297Z,62.67
2022-08-22T07:04:09.667Z,68.10
2022-08-22T07:06:43.884Z,70.88
2022-08-22T07:09:20.401Z,71.26
2022-08-22T07:11:49.314Z,61.36
2022-08-22T07:14:25.176Z,61.41
2022-08-22T07:17:01.375Z,64.23
2022-08-22T07:19:33.197Z,64.35
2022-08-22T07:22:22.055Z,59.71
2022-08-22T07:24:57.514Z,56.61
2022-08-22T07:27:48.815Z,60.35
2022-08-22T07:30:28.239Z,62.39
2022-08-22T07:33:25.822Z,61.79
2022-08-22T07:35:59.493Z,54.89
2022-08-22T07:38:43.075Z,54.83
2022-08-22T07:41:20.348Z,51.68
2022-08-22T07:43:52.627Z,47.64
2022-08-22T07:46:36.054Z,48.48
2022-08-22T07:49:14.470Z,50.51
2022-08-22T07:51:56.070Z,51.04
2022-08-22T07:54:35.642Z,47.74
2022-08-22T07:57:15.264Z,45.96
2022-08-22T07:59:55.321Z,47.75
2022-08-22T08:02:24.929Z,43.00
2022-08-22T08:04:56.829Z,41.71
2022-08-22T08:07:27.755Z,40.88
2022-08-22T08:10:11.131Z,40.41
2022-08-22T08:12:57.892Z,39.67
2022-08-22T08:15:33.104Z,38.70
2022-08-22T08:18:06.534Z,38.68
2022-08-22T08:20:36.752Z,37.64
2022-08-22T08:23:10.849Z,38.12
2022-08-22T08:26:05.870Z,37.17
2022-08-22T08:28:40.062Z,36.74
2022-08-22T08:31:16.620Z,36.16
2022-08-22T08:33:48.430Z,35.10
2022-08-22T08:36:33.632Z,35.21
2022-08-22T08:39:00.853Z,34.11
2022-08-22T08:41:52.693Z,34.25
2022-08-22T08:44:31.849Z,33.90
2022-08-22T08:47:30.468Z,33.54
2022-08-22T08:50:06.585Z,32.76
2022-08-22T08:52:40.759Z,33.04
2022-08-22T08:58:30.476Z,31.44
2022-08-22T09:01:27.685Z,31.61
2022-08-22T09:04:04.869Z,30.78
2022-08-22T09:07:06.069Z,30.02
2022-08-22T09:09:52.806Z,31.40
2022-08-22T09:13:11.854Z,30.13
2022-08-22T09:16:22.802Z,29.66
2022-08-22T09:19:20.570Z,29.46
2022-08-22T09:21:51.193Z,29.04
2022-08-22T09:24:48.915Z,29.08
2022-08-22T09:27:37.385Z,29.56
2022-08-22T09:30:11.678Z,30.12
2022-08-22T09:33:14.555Z,29.69
2022-08-22T09:35:59.454Z,28.12
2022-08-22T09:39:10.970Z,28.13
2022-08-22T09:40:15.989Z,31.56
2022-08-22T09:42:07.943Z,28.51
2022-08-22T09:44:59.445Z,27.89
2022-08-22T09:47:39.305Z,29.20
2022-08-22T09:51:01.658Z,27.72
2022-08-22T09:54:08.903Z,27.77
2022-08-22T09:56:55.968Z,27.98
2022-08-22T09:59:37.464Z,27.62
2022-08-22T10:02:29.669Z,27.24
2022-08-22T10:05:40.310Z,26.37
2022-08-22T10:08:33.279Z,26.17
2022-08-22T10:11:12.058Z,25.97
2022-08-22T10:13:47.811Z,26.72
2022-08-22T10:16:27.652Z,25.84
2022-08-22T10:19:23.143Z,26.07
2022-08-22T10:22:22.501Z,25.45
2022-08-22T10:25:22.626Z,24.79
2022-08-22T10:28:12.313Z,25.35
2022-08-22T10:31:18.348Z,25.62
2022-08-22T10:34:03.504Z,25.25
2022-08-22T10:36:46.146Z,25.35
2022-08-22T10:39:24.659Z,24.88
2022-08-22T10:42:18.560Z,26.00
2022-08-22T10:45:23.555Z,26.68
2022-08-22T10:48:08.936Z,25.64
2022-08-22T10:50:48.245Z,25.67
2022-08-22T10:53:44.158Z,25.11
2022-08-22T10:56:23.946Z,25.23
2022-08-22T10:59:22.917Z,25.25
2022-08-22T11:02:15.026Z,26.78
2022-08-22T11:05:04.951Z,26.69
2022-08-22T11:08:06.573Z,25.96
2022-08-22T11:10:49.267Z,25.99
2022-08-22T11:13:46.837Z,26.18
2022-08-22T11:16:55.314Z,26.31
2022-08-22T11:19:44.781Z,25.15
2022-08-22T11:22:30.755Z,25.19
2022-08-22T11:25:38.555Z,24.66
2022-08-22T11:28:25.216Z,24.23
2022-08-22T11:31:10.204Z,24.40
2022-08-22T11:33:49.710Z,24.06
2022-08-22T11:36:39.803Z,24.26
2022-08-22T11:39:18.259Z,24.33
2022-08-22T11:41:57.707Z,24.80
2022-08-22T11:44:50.514Z,24.52
2022-08-22T11:47:26.689Z,24.28
2022-08-22T11:50:35.215Z,24.27
2022-08-22T11:53:04.613Z,24.33
2022-08-22T11:55:59.291Z,24.29
2022-08-22T11:59:00.950Z,24.00
2022-08-22T12:01:53.076Z,24.21
2022-08-22T12:04:42.575Z,24.28
2022-08-22T12:07:18.069Z,24.73
2022-08-22T12:09:51.001Z,24.45
2022-08-22T12:12:52.688Z,24.19
2022-08-22T12:15:40.566Z,23.69
2022-08-22T12:18:27.584Z,24.00
2022-08-22T12:20:57.666Z,23.73
2022-08-22T12:23:50.561Z,24.10
2022-08-22T12:26:28.629Z,23.71
2022-08-22T12:29:23.325Z,23.54
2022-08-22T12:32:15.640Z,24.69
2022-08-22T12:34:55.733Z,24.60
2022-08-22T12:38:03.622Z,24.39
2022-08-22T12:40:45.340Z,24.35
2022-08-22T12:43:42.752Z,23.68
2022-08-22T12:46:15.065Z,24.58
2022-08-22T12:49:17.437Z,24.43
2022-08-22T12:52:08.839Z,24.96
2022-08-22T12:55:13.672Z,26.51
2022-08-22T12:58:08.377Z,26.00
2022-08-22T13:00:35.856Z,28.89
2022-08-22T13:03:28.379Z,26.38
2022-08-22T13:06:00.355Z,28.00
2022-08-22T13:08:38.421Z,27.30
2022-08-22T13:11:23.364Z,25.57
2022-08-22T13:14:01.393Z,24.51
2022-08-22T13:16:39.156Z,23.72
2022-08-22T13:19:29.433Z,24.02
2022-08-22T13:22:02.582Z,23.88
2022-08-22T13:24:52.369Z,23.75
2022-08-22T13:27:34.450Z,24.21
2022-08-22T13:30:13.584Z,24.13
2022-08-22T13:32:44.668Z,24.23
2022-08-22T13:35:32.885Z,24.24
2022-08-22T13:38:12.326Z,24.41
2022-08-22T13:40:46.260Z,25.26
2022-08-22T13:43:20.945Z,25.02
2022-08-22T13:45:58.278Z,25.00
2022-08-22T13:48:46.758Z,26.11
2022-08-22T13:51:21.065Z,26.18
2022-08-22T13:54:02.213Z,25.64
2022-08-22T13:56:52.624Z,27.16
2022-08-22T13:59:50.338Z,27.46
2022-08-22T14:02:43.475Z,27.58
2022-08-22T14:05:36.745Z,28.12
2022-08-22T14:08:21.725Z,28.68
2022-08-22T14:11:11.372Z,28.94
2022-08-22T14:13:45.963Z,29.35
2022-08-22T14:16:21.015Z,30.37
2022-08-22T14:18:55.285Z,30.43
2022-08-22T14:21:51.392Z,30.13
2022-08-22T14:24:25.878Z,29.88
2022-08-22T14:27:14.544Z,29.89
2022-08-22T14:29:50.881Z,28.51
2022-08-22T14:32:22.796Z,27.33
2022-08-22T14:35:05.676Z,27.01
2022-08-22T14:37:42.896Z,26.82
2022-08-22T14:40:34.359Z,27.00
2022-08-22T14:43:09.622Z,27.19
2022-08-22T14:45:45.667Z,26.38
2022-08-22T14:48:40.668Z,26.62
2022-08-22T14:51:22.034Z,26.34
2022-08-22T14:53:50.865Z,26.10
2022-08-22T14:56:27.974Z,26.38
2022-08-22T14:59:01.350Z,26.00
2022-08-22T15:01:32.730Z,28.83
2022-08-22T15:04:11.232Z,29.60
2022-08-22T15:07:09.171Z,29.98
2022-08-22T15:09:50.986Z,29.60
2022-08-22T15:12:34.380Z,29.09
2022-08-22T15:15:13.339Z,29.78
2022-08-22T15:17:50.890Z,29.20
2022-08-22T15:20:28.662Z,29.95
2022-08-22T15:23:03.003Z,28.89
2022-08-22T15:25:43.032Z,29.60
2022-08-22T15:28:20.307Z,29.94
2022-08-22T15:31:03.508Z,29.50
2022-08-22T15:33:43.236Z,29.88
2022-08-22T15:36:27.446Z,29.82
2022-08-22T15:39:17.245Z,30.32
2022-08-22T15:41:47.937Z,29.84
2022-08-22T15:44:30.830Z,28.21
2022-08-22T15:47:34.842Z,28.28
2022-08-22T15:50:15.460Z,27.81
2022-08-22T15:53:14.857Z,28.43
2022-08-22T15:56:05.096Z,29.28
2022-08-22T15:58:37.621Z,28.95
2022-08-22T16:01:12.592Z,28.39
2022-08-22T16:03:58.486Z,27.84
2022-08-22T16:06:48.248Z,27.80
2022-08-22T16:09:46.581Z,27.95
2022-08-22T16:12:51.022Z,27.76
2022-08-22T16:15:54.395Z,28.45
2022-08-22T16:18:39.473Z,27.73
2022-08-22T16:21:18.255Z,28.18
2022-08-22T16:23:51.635Z,28.61
2022-08-22T16:26:43.244Z,28.29
2022-08-22T16:29:14.739Z,26.90
2022-08-22T16:31:45.102Z,26.61
2022-08-22T16:34:18.677Z,27.68
2022-08-22T16:36:55.535Z,26.29
2022-08-22T16:39:22.767Z,27.14
2022-08-22T16:42:22.713Z,29.47
2022-08-22T16:44:54.873Z,26.63
2022-08-22T16:47:42.175Z,28.01
2022-08-22T16:50:27.292Z,28.31
2022-08-22T16:53:31.506Z,27.42
2022-08-22T16:56:25.862Z,27.40
2022-08-22T16:59:23.101Z,27.78
2022-08-22T17:02:07.965Z,27.13
2022-08-22T17:04:44.430Z,26.99
2022-08-22T17:07:32.023Z,27.42
2022-08-22T17:10:17.798Z,26.15
2022-08-22T17:13:10.452Z,28.23
2022-08-22T17:15:58.001Z,28.31
2022-08-22T17:19:05.245Z,27.93
2022-08-22T17:21:51.936Z,28.39
2022-08-22T17:24:36.772Z,26.99
2022-08-22T17:27:16.059Z,26.92
2022-08-22T17:29:45.950Z,27.97
2022-08-22T17:32:24.550Z,28.76
2022-08-22T17:35:20.828Z,27.58
2022-08-22T17:38:00.600Z,29.14
2022-08-22T17:40:37.027Z,27.99
2022-08-22T17:43:10.125Z,27.60
2022-08-22T17:45:45.994Z,28.02
2022-08-22T17:48:13.386Z,29.21
2022-08-22T17:50:48.612Z,28.20
2022-08-22T17:53:24.615Z,29.78
2022-08-22T17:56:19.641Z,28.69
2022-08-22T17:59:07.053Z,30.07
2022-08-22T18:01:48.551Z,28.86
2022-08-22T18:04:39.339Z,29.92
2022-08-22T18:07:15.674Z,29.43
2022-08-22T18:09:51.785Z,28.64
2022-08-22T18:12:48.421Z,30.54
2022-08-22T18:15:29.958Z,29.54
2022-08-22T18:18:05.271Z,30.84
2022-08-22T18:20:46.317Z,29.89
2022-08-22T18:23:36.089Z,30.52
2022-08-22T18:26:31.994Z,31.30
2022-08-22T18:29:06.607Z,31.08
2022-08-22T18:32:07.483Z,31.93
2022-08-22T18:34:52.293Z,31.19
2022-08-22T18:38:00.108Z,31.93
2022-08-22T18:40:30.915Z,32.47
2022-08-22T18:43:13.594Z,32.55
2022-08-22T18:45:46.729Z,32.88
2022-08-22T18:48:59.383Z,33.14
2022-08-22T18:51:38.146Z,32.22
2022-08-22T18:54:07.206Z,33.20
2022-08-22T18:56:50.976Z,33.62
2022-08-22T18:59:26.685Z,34.18
2022-08-22T19:02:22.768Z,33.36
2022-08-22T19:05:13.045Z,34.14
2022-08-22T19:08:11.263Z,33.97
2022-08-22T19:10:47.284Z,34.75
2022-08-22T19:13:36.226Z,35.22
2022-08-22T19:16:21.175Z,35.38
2022-08-22T19:18:51.686Z,35.89
2022-08-22T19:21:48.477Z,35.56
2022-08-22T19:24:28.088Z,36.17
2022-08-22T19:27:07.658Z,36.68
2022-08-22T19:29:37.654Z,35.48
2022-08-22T19:32:12.968Z,36.93
2022-08-22T19:34:47.716Z,36.72
2022-08-22T19:37:33.341Z,37.01
2022-08-22T19:40:05.045Z,36.25
2022-08-22T19:42:36.434Z,36.39
2022-08-22T19:45:10.643Z,37.08
2022-08-22T19:47:42.644Z,37.86
2022-08-22T19:50:16.762Z,37.03
2022-08-22T19:53:00.009Z,37.19
2022-08-22T19:55:39.202Z,37.64
2022-08-22T19:58:32.535Z,37.38
2022-08-22T20:01:27.210Z,37.80
2022-08-22T20:04:15.355Z,35.90
2022-08-22T20:07:14.376Z,36.26
2022-08-22T20:10:19.816Z,36.68
2022-08-22T20:13:18.433Z,36.58
2022-08-22T20:16:08.014Z,37.19
2022-08-22T20:19:06.390Z,37.71
2022-08-22T20:21:48.557Z,37.68
2022-08-22T20:24:29.504Z,37.42
2022-08-22T20:27:15.752Z,36.22
2022-08-22T20:29:52.027Z,37.49
2022-08-22T20:32:22.256Z,35.96
2022-08-22T20:34:55.853Z,36.42
2022-08-22T20:37:45.291Z,37.69
2022-08-22T20:40:55.306Z,37.35
2022-08-22T20:43:37.881Z,37.52
2022-08-22T20:46:24.105Z,37.11
2022-08-22T20:48:54.901Z,37.83
2022-08-22T20:51:25.722Z,36.58
2022-08-22T20:54:16.833Z,37.12
2022-08-22T20:56:56.281Z,37.73
2022-08-22T20:59:29.916Z,37.87
2022-08-22T21:02:03.567Z,38.14
2022-08-22T21:04:45.928Z,37.50
2022-08-22T21:07:21.293Z,36.45
2022-08-22T21:10:15.899Z,37.27
2022-08-22T21:13:02.166Z,38.15
2022-08-22T21:15:32.141Z,35.42
2022-08-22T21:18:00.515Z,36.59
2022-08-22T21:20:33.330Z,37.90
2022-08-22T21:23:07.052Z,37.83
2022-08-22T21:25:48.983Z,36.97
2022-08-22T21:28:57.237Z,36.02
2022-08-22T21:31:28.966Z,37.13
2022-08-22T21:33:57.492Z,38.34
2022-08-22T21:36:28.761Z,38.58
2022-08-22T21:39:06.878Z,35.69
2022-08-22T21:41:52.849Z,37.79
2022-08-22T21:44:32.276Z,38.82
2022-08-22T21:47:31.491Z,36.72
2022-08-22T21:50:28.703Z,37.18
2022-08-22T21:52:55.946Z,37.96
2022-08-22T21:55:30.783Z,39.24
2022-08-22T21:58:10.255Z,36.10
2022-08-22T22:01:00.420Z,38.02
2022-08-22T22:03:30.735Z,38.45
2022-08-22T22:06:03.393Z,38.76
2022-08-22T22:08:32.034Z,39.50
2022-08-22T22:11:08.614Z,39.09
2022-08-22T22:13:37.743Z,38.81
2022-08-22T22:16:07.235Z,36.80
2022-08-22T22:18:37.637Z,39.00
2022-08-22T22:21:06.019Z,37.17
2022-08-22T22:23:33.910Z,38.38
2022-08-22T22:26:05.300Z,39.71
2022-08-22T22:28:42.067Z,39.68
2022-08-22T22:31:09.664Z,40.17
2022-08-22T22:33:39.365Z,40.78
2022-08-22T22:36:28.969Z,40.95
2022-08-22T22:38:56.459Z,40.54
2022-08-22T22:41:25.894Z,39.72
2022-08-22T22:43:54.483Z,41.35
2022-08-22T22:46:23.672Z,41.54
2022-08-22T22:48:51.176Z,42.58
2022-08-22T22:51:18.441Z,39.81
2022-08-22T22:53:48.885Z,40.70
2022-08-22T22:56:21.613Z,41.83
2022-08-22T22:58:58.964Z,42.48
2022-08-22T23:01:27.501Z,42.99
2022-08-22T23:03:57.742Z,42.47
2022-08-22T23:06:28.226Z,42.69
2022-08-22T23:08:56.171Z,43.22
2022-08-22T23:11:29.477Z,43.21
2022-08-22T23:13:57.409Z,44.20
2022-08-22T23:16:27.504Z,42.67
2022-08-22T23:18:55.600Z,43.25
2022-08-22T23:21:26.716Z,44.10
2022-08-22T23:23:56.340Z,44.97
2022-08-22T23:26:24.947Z,43.72
2022-08-22T23:28:52.299Z,44.68
2022-08-22T23:31:42.354Z,45.81
2022-08-22T23:34:13.373Z,46.61
2022-08-22T23:36:43.863Z,47.56
2022-08-22T23:39:12.648Z,47.65
2022-08-22T23:41:40.999Z,47.29
2022-08-22T23:44:13.446Z,45.91
2022-08-22T23:46:44.243Z,47.55
2022-08-22T23:49:12.179Z,47.81
2022-08-22T23:51:39.905Z,46.25
2022-08-22T23:54:07.835Z,46.92
2022-08-22T23:56:44.589Z,48.12
2022-08-22T23:59:19.409Z,47.95
